CheckWX is a tool to help pilots better visualize weather data.  It is not intended as a substitute for an official pre-flight weather briefing.

07:15:46 UTC

MMPG TAF
Piedras Negras International Airport
Mexico
TAF MMPG 170525Z 1706/1806 12007KT P6SM SCT025 SCT250 TEMPO 1711/1715 6SM HZ BKN020 FM171800 12012KT P6SM SCT020 BKN250 FM180500 12006KT P6SM SCT025

Jun-17@
06:00 UTC

Jun-17 @ 06:00 UTC

Jun-17@
18:00 UTC

Jun-17 @ 18:00 UTC

TAF MMPG 170525Z 1706/1806 12007KT P6SM SCT025 SCT250
Wind
  • 120° at 7 KTS
Cloud Levels
  • Scattered at 2,500' AGL
  • Scattered at 25,000' AGL

Jun-17@
11:00 UTC

Jun-17 @ 11:00 UTC

Jun-17@
15:00 UTC

Jun-17 @ 15:00 UTC

TEMPO 1711/1715 6SM HZ BKN020

Temporary

Temporary Changes expected for less than half the time period

Conditions
Haze
Cloud Levels
  • Broken at 2,000' AGL

Jun-17@
18:00 UTC

Jun-17 @ 18:00 UTC

Jun-18@
05:00 UTC

Jun-18 @ 05:00 UTC

FM171800 12012KT P6SM SCT020 BKN250

From

From Standard forecast or significant change

Wind
  • 120° at 12 KTS
Cloud Levels
  • Scattered at 2,000' AGL
  • Broken at 25,000' AGL

Jun-18@
05:00 UTC

Jun-18 @ 05:00 UTC

Jun-18@
06:00 UTC

Jun-18 @ 06:00 UTC

FM180500 12006KT P6SM SCT025

From

From Standard forecast or significant change

Wind
  • 120° at 6 KTS
Cloud Levels
  • Scattered at 2,500' AGL